sensor_id;sensor_type;location;lat;lon;timestamp;pressure;altitude;pressure_sealevel;temperature;humidity
41254;BME280;26987;59.928;30.306;2023-06-22T00:01:21;101201.75;;;19.35;63.50
41254;BME280;26987;59.928;30.306;2023-06-22T00:03:48;101180.16;;;19.23;63.25
41254;BME280;26987;59.928;30.306;2023-06-22T00:06:16;101192.22;;;19.32;63.22
41254;BME280;26987;59.928;30.306;2023-06-22T00:08:46;101190.81;;;19.29;63.67
41254;BME280;26987;59.928;30.306;2023-06-22T00:11:14;101180.44;;;19.26;63.66
41254;BME280;26987;59.928;30.306;2023-06-22T00:13:42;101177.69;;;19.21;63.78
41254;BME280;26987;59.928;30.306;2023-06-22T00:16:10;101177.69;;;19.21;64.02
41254;BME280;26987;59.928;30.306;2023-06-22T00:18:38;101178.78;;;19.20;64.02
41254;BME280;26987;59.928;30.306;2023-06-22T00:21:05;101172.25;;;19.21;64.78
41254;BME280;26987;59.928;30.306;2023-06-22T00:23:34;101168.16;;;19.19;64.07
41254;BME280;26987;59.928;30.306;2023-06-22T00:26:04;101166.50;;;19.18;64.23
41254;BME280;26987;59.928;30.306;2023-06-22T00:28:32;101163.47;;;19.14;64.45
41254;BME280;26987;59.928;30.306;2023-06-22T00:31:01;101160.44;;;19.10;64.42
41254;BME280;26987;59.928;30.306;2023-06-22T00:33:29;101161.16;;;19.06;64.58
41254;BME280;26987;59.928;30.306;2023-06-22T00:35:57;101156.75;;;18.99;64.82
41254;BME280;26987;59.928;30.306;2023-06-22T00:38:25;101155.59;;;18.95;64.95
41254;BME280;26987;59.928;30.306;2023-06-22T00:40:53;101156.19;;;18.97;64.80
41254;BME280;26987;59.928;30.306;2023-06-22T00:43:22;101158.91;;;18.97;64.87
41254;BME280;26987;59.928;30.306;2023-06-22T00:45:50;101156.69;;;18.94;64.79
41254;BME280;26987;59.928;30.306;2023-06-22T00:48:18;101157.78;;;18.93;64.81
41254;BME280;26987;59.928;30.306;2023-06-22T00:50:48;101150.94;;;18.90;64.86
41254;BME280;26987;59.928;30.306;2023-06-22T00:53:18;101149.06;;;18.91;64.91
41254;BME280;26987;59.928;30.306;2023-06-22T00:55:46;101134.00;;;18.83;64.77
41254;BME280;26987;59.928;30.306;2023-06-22T00:58:18;101129.91;;;18.81;64.59
41254;BME280;26987;59.928;30.306;2023-06-22T01:00:51;101104.22;;;18.66;64.76
41254;BME280;26987;59.928;30.306;2023-06-22T01:03:19;101140.31;;;18.89;64.61
41254;BME280;26987;59.928;30.306;2023-06-22T01:05:48;101140.56;;;18.87;65.00
41254;BME280;26987;59.928;30.306;2023-06-22T01:08:24;101134.88;;;18.89;64.74
41254;BME280;26987;59.928;30.306;2023-06-22T01:11:01;101139.00;;;18.91;64.80
41254;BME280;26987;59.928;30.306;2023-06-22T01:13:39;101130.28;;;18.89;64.83
41254;BME280;26987;59.928;30.306;2023-06-22T01:16:15;101136.56;;;18.90;64.95
41254;BME280;26987;59.928;30.306;2023-06-22T01:18:45;101126.50;;;18.90;64.75
41254;BME280;26987;59.928;30.306;2023-06-22T01:21:17;101133.31;;;18.93;64.85
41254;BME280;26987;59.928;30.306;2023-06-22T01:24:06;101136.41;;;19.02;64.58
41254;BME280;26987;59.928;30.306;2023-06-22T01:26:43;101134.59;;;19.08;64.45
41254;BME280;26987;59.928;30.306;2023-06-22T01:29:18;101123.78;;;19.13;64.30
41254;BME280;26987;59.928;30.306;2023-06-22T01:31:49;101116.69;;;19.12;64.08
41254;BME280;26987;59.928;30.306;2023-06-22T01:34:18;101131.78;;;19.25;63.80
41254;BME280;26987;59.928;30.306;2023-06-22T01:36:47;101128.28;;;19.29;63.81
41254;BME280;26987;59.928;30.306;2023-06-22T01:39:15;101124.81;;;19.34;63.71
41254;BME280;26987;59.928;30.306;2023-06-22T01:41:44;101127.28;;;19.36;63.53
41254;BME280;26987;59.928;30.306;2023-06-22T01:44:16;101118.31;;;19.35;63.58
41254;BME280;26987;59.928;30.306;2023-06-22T01:46:45;101118.03;;;19.37;63.47
41254;BME280;26987;59.928;30.306;2023-06-22T01:49:14;101100.81;;;19.26;63.87
41254;BME280;26987;59.928;30.306;2023-06-22T01:51:42;101116.41;;;19.36;63.74
41254;BME280;26987;59.928;30.306;2023-06-22T01:54:10;101112.81;;;19.30;63.89
41254;BME280;26987;59.928;30.306;2023-06-22T01:56:39;101109.00;;;19.31;63.44
41254;BME280;26987;59.928;30.306;2023-06-22T01:59:11;101115.88;;;19.39;63.38
41254;BME280;26987;59.928;30.306;2023-06-22T02:01:43;101089.94;;;19.26;63.12
41254;BME280;26987;59.928;30.306;2023-06-22T02:04:16;101108.91;;;19.48;63.05
41254;BME280;26987;59.928;30.306;2023-06-22T02:06:47;101092.59;;;19.48;62.61
41254;BME280;26987;59.928;30.306;2023-06-22T02:09:19;101113.16;;;19.72;62.27
41254;BME280;26987;59.928;30.306;2023-06-22T02:11:50;101108.44;;;19.89;61.69
41254;BME280;26987;59.928;30.306;2023-06-22T02:14:21;101107.28;;;20.23;60.61
41254;BME280;26987;59.928;30.306;2023-06-22T02:16:51;101112.94;;;20.65;59.19
41254;BME280;26987;59.928;30.306;2023-06-22T02:19:23;101101.13;;;21.13;57.39
41254;BME280;26987;59.928;30.306;2023-06-22T02:21:53;101122.44;;;21.63;55.53
41254;BME280;26987;59.928;30.306;2023-06-22T02:24:20;101098.69;;;22.05;53.56
41254;BME280;26987;59.928;30.306;2023-06-22T02:26:49;101097.59;;;22.88;50.77
41254;BME280;26987;59.928;30.306;2023-06-22T02:29:17;101110.13;;;23.74;48.22
41254;BME280;26987;59.928;30.306;2023-06-22T02:31:45;101116.41;;;24.34;46.04
41254;BME280;26987;59.928;30.306;2023-06-22T02:34:14;101105.97;;;24.61;45.79
41254;BME280;26987;59.928;30.306;2023-06-22T02:36:45;101112.03;;;24.58;45.98
41254;BME280;26987;59.928;30.306;2023-06-22T02:39:19;101087.41;;;24.52;45.61
41254;BME280;26987;59.928;30.306;2023-06-22T02:41:49;101090.16;;;24.96;44.43
41254;BME280;26987;59.928;30.306;2023-06-22T02:44:17;101089.09;;;25.11;43.86
41254;BME280;26987;59.928;30.306;2023-06-22T02:46:48;101103.41;;;25.08;44.32
41254;BME280;26987;59.928;30.306;2023-06-22T02:49:18;101105.16;;;24.79;45.15
41254;BME280;26987;59.928;30.306;2023-06-22T02:51:47;101071.97;;;24.37;45.42
41254;BME280;26987;59.928;30.306;2023-06-22T02:54:19;101077.63;;;24.90;44.26
41254;BME280;26987;59.928;30.306;2023-06-22T02:56:49;101103.09;;;25.95;42.12
41254;BME280;26987;59.928;30.306;2023-06-22T02:59:18;101099.25;;;26.67;40.52
41254;BME280;26987;59.928;30.306;2023-06-22T03:01:51;101088.16;;;27.09;39.77
41254;BME280;26987;59.928;30.306;2023-06-22T03:04:25;101094.94;;;27.80;38.46
41254;BME280;26987;59.928;30.306;2023-06-22T03:06:53;101098.97;;;28.55;36.78
41254;BME280;26987;59.928;30.306;2023-06-22T03:09:21;101093.97;;;28.93;35.95
41254;BME280;26987;59.928;30.306;2023-06-22T03:11:49;101101.41;;;29.54;35.08
41254;BME280;26987;59.928;30.306;2023-06-22T03:14:17;101102.66;;;29.83;34.31
41254;BME280;26987;59.928;30.306;2023-06-22T03:16:45;101095.47;;;30.30;33.27
41254;BME280;26987;59.928;30.306;2023-06-22T03:19:13;101056.56;;;30.36;32.59
41254;BME280;26987;59.928;30.306;2023-06-22T03:21:42;101106.75;;;30.98;32.29
41254;BME280;26987;59.928;30.306;2023-06-22T03:24:10;101109.09;;;31.08;31.64
41254;BME280;26987;59.928;30.306;2023-06-22T03:26:39;101101.66;;;31.68;31.15
41254;BME280;26987;59.928;30.306;2023-06-22T03:29:06;101104.28;;;31.98;30.60
41254;BME280;26987;59.928;30.306;2023-06-22T03:31:35;101117.09;;;32.53;29.79
41254;BME280;26987;59.928;30.306;2023-06-22T03:34:03;101114.78;;;33.08;28.72
41254;BME280;26987;59.928;30.306;2023-06-22T03:36:31;101112.69;;;33.34;28.55
41254;BME280;26987;59.928;30.306;2023-06-22T03:39:00;101109.03;;;33.46;28.14
41254;BME280;26987;59.928;30.306;2023-06-22T03:41:29;101110.00;;;33.38;28.08
41254;BME280;26987;59.928;30.306;2023-06-22T03:43:57;101105.50;;;33.78;27.73
41254;BME280;26987;59.928;30.306;2023-06-22T03:46:24;101095.63;;;33.80;27.21
41254;BME280;26987;59.928;30.306;2023-06-22T03:48:52;101091.75;;;34.01;27.11
41254;BME280;26987;59.928;30.306;2023-06-22T03:51:20;101099.00;;;33.57;27.74
41254;BME280;26987;59.928;30.306;2023-06-22T03:53:48;101098.03;;;33.98;27.19
41254;BME280;26987;59.928;30.306;2023-06-22T03:56:18;101100.81;;;32.92;28.53
41254;BME280;26987;59.928;30.306;2023-06-22T03:58:47;101101.06;;;32.87;28.22
41254;BME280;26987;59.928;30.306;2023-06-22T04:01:15;101089.13;;;33.44;28.05
41254;BME280;26987;59.928;30.306;2023-06-22T04:03:43;101076.47;;;33.30;27.90
41254;BME280;26987;59.928;30.306;2023-06-22T04:06:11;101089.50;;;34.23;26.81
41254;BME280;26987;59.928;30.306;2023-06-22T04:08:39;101084.97;;;34.51;26.31
41254;BME280;26987;59.928;30.306;2023-06-22T04:11:07;101080.31;;;34.39;26.31
41254;BME280;26987;59.928;30.306;2023-06-22T04:13:36;101078.84;;;34.45;26.39
41254;BME280;26987;59.928;30.306;2023-06-22T04:16:04;101058.50;;;34.41;26.29
41254;BME280;26987;59.928;30.306;2023-06-22T04:18:32;101076.56;;;35.06;25.32
41254;BME280;26987;59.928;30.306;2023-06-22T04:21:00;101082.91;;;35.50;25.13
41254;BME280;26987;59.928;30.306;2023-06-22T04:23:28;101074.50;;;35.70;25.13
41254;BME280;26987;59.928;30.306;2023-06-22T04:25:56;101077.00;;;35.75;24.69
41254;BME280;26987;59.928;30.306;2023-06-22T04:28:24;101075.69;;;35.69;24.70
41254;BME280;26987;59.928;30.306;2023-06-22T04:30:53;101077.59;;;35.41;25.00
41254;BME280;26987;59.928;30.306;2023-06-22T04:33:24;101074.88;;;35.45;24.40
41254;BME280;26987;59.928;30.306;2023-06-22T04:35:52;101074.44;;;35.90;24.51
41254;BME280;26987;59.928;30.306;2023-06-22T04:38:20;101070.44;;;36.72;23.61
41254;BME280;26987;59.928;30.306;2023-06-22T04:40:49;101076.69;;;36.65;23.91
41254;BME280;26987;59.928;30.306;2023-06-22T04:43:16;101076.59;;;36.58;24.34
41254;BME280;26987;59.928;30.306;2023-06-22T04:45:44;101072.50;;;36.48;24.31
41254;BME280;26987;59.928;30.306;2023-06-22T04:48:14;101068.75;;;35.16;25.63
41254;BME280;26987;59.928;30.306;2023-06-22T04:50:42;101063.66;;;33.26;28.28
41254;BME280;26987;59.928;30.306;2023-06-22T04:53:10;101053.06;;;31.58;30.47
41254;BME280;26987;59.928;30.306;2023-06-22T04:55:39;101024.22;;;30.57;31.75
41254;BME280;26987;59.928;30.306;2023-06-22T04:58:08;101045.09;;;30.46;32.30
41254;BME280;26987;59.928;30.306;2023-06-22T05:00:39;101041.38;;;29.81;33.64
41254;BME280;26987;59.928;30.306;2023-06-22T05:03:07;101037.69;;;30.07;33.26
41254;BME280;26987;59.928;30.306;2023-06-22T05:05:38;101043.47;;;29.84;33.79
41254;BME280;26987;59.928;30.306;2023-06-22T05:08:06;101032.53;;;29.49;34.44
41254;BME280;26987;59.928;30.306;2023-06-22T05:10:34;101036.84;;;28.84;35.48
41254;BME280;26987;59.928;30.306;2023-06-22T05:13:02;101035.59;;;28.06;36.81
41254;BME280;26987;59.928;30.306;2023-06-22T05:15:30;101039.66;;;28.17;37.35
41254;BME280;26987;59.928;30.306;2023-06-22T05:18:03;101027.34;;;29.39;35.28
41254;BME280;26987;59.928;30.306;2023-06-22T05:20:31;101024.66;;;29.78;34.18
41254;BME280;26987;59.928;30.306;2023-06-22T05:23:03;101026.63;;;30.80;33.08
41254;BME280;26987;59.928;30.306;2023-06-22T05:25:31;101027.59;;;31.31;31.62
41254;BME280;26987;59.928;30.306;2023-06-22T05:28:00;101030.84;;;32.58;29.80
41254;BME280;26987;59.928;30.306;2023-06-22T05:30:27;101029.19;;;33.43;28.75
41254;BME280;26987;59.928;30.306;2023-06-22T05:32:55;101027.69;;;33.62;27.91
41254;BME280;26987;59.928;30.306;2023-06-22T05:35:23;101020.06;;;34.10;27.43
41254;BME280;26987;59.928;30.306;2023-06-22T05:37:51;101020.44;;;34.65;26.41
41254;BME280;26987;59.928;30.306;2023-06-22T05:40:20;101021.75;;;34.91;26.92
41254;BME280;26987;59.928;30.306;2023-06-22T05:42:48;101009.94;;;35.41;25.80
41254;BME280;26987;59.928;30.306;2023-06-22T05:45:16;100998.22;;;35.31;25.77
41254;BME280;26987;59.928;30.306;2023-06-22T05:47:44;101006.44;;;35.71;25.54
41254;BME280;26987;59.928;30.306;2023-06-22T05:50:12;101002.34;;;35.65;25.43
41254;BME280;26987;59.928;30.306;2023-06-22T05:52:39;100985.03;;;36.06;24.30
41254;BME280;26987;59.928;30.306;2023-06-22T05:55:08;100999.72;;;34.82;26.01
41254;BME280;26987;59.928;30.306;2023-06-22T05:57:37;100970.00;;;34.10;27.08
41254;BME280;26987;59.928;30.306;2023-06-22T06:00:06;100985.63;;;34.15;27.25
41254;BME280;26987;59.928;30.306;2023-06-22T06:02:37;100986.59;;;33.06;28.40
41254;BME280;26987;59.928;30.306;2023-06-22T06:05:10;100983.31;;;32.88;28.42
41254;BME280;26987;59.928;30.306;2023-06-22T06:07:40;100990.47;;;33.50;27.92
41254;BME280;26987;59.928;30.306;2023-06-22T06:10:09;100979.50;;;34.65;27.15
41254;BME280;26987;59.928;30.306;2023-06-22T06:12:38;100986.22;;;35.27;25.81
41254;BME280;26987;59.928;30.306;2023-06-22T06:15:07;100974.00;;;35.86;24.73
41254;BME280;26987;59.928;30.306;2023-06-22T06:17:35;100961.31;;;36.19;24.43
41254;BME280;26987;59.928;30.306;2023-06-22T06:20:03;100959.22;;;36.13;24.77
41254;BME280;26987;59.928;30.306;2023-06-22T06:22:33;100961.00;;;36.63;24.50
41254;BME280;26987;59.928;30.306;2023-06-22T06:25:01;100958.47;;;36.50;24.81
41254;BME280;26987;59.928;30.306;2023-06-22T06:27:29;100955.28;;;36.17;24.57
41254;BME280;26987;59.928;30.306;2023-06-22T06:29:58;100960.84;;;35.87;24.99
41254;BME280;26987;59.928;30.306;2023-06-22T06:32:26;100964.22;;;36.30;24.34
41254;BME280;26987;59.928;30.306;2023-06-22T06:34:54;100949.84;;;35.97;25.11
41254;BME280;26987;59.928;30.306;2023-06-22T06:37:22;100950.09;;;36.16;25.29
41254;BME280;26987;59.928;30.306;2023-06-22T06:39:49;100954.22;;;36.26;24.65
41254;BME280;26987;59.928;30.306;2023-06-22T06:42:17;100948.06;;;36.43;24.75
41254;BME280;26987;59.928;30.306;2023-06-22T06:44:46;100948.63;;;36.26;24.19
41254;BME280;26987;59.928;30.306;2023-06-22T06:47:15;100940.81;;;36.39;24.40
41254;BME280;26987;59.928;30.306;2023-06-22T06:49:43;100937.72;;;36.17;25.11
41254;BME280;26987;59.928;30.306;2023-06-22T06:52:11;100930.03;;;36.06;25.07
41254;BME280;26987;59.928;30.306;2023-06-22T06:54:38;100937.97;;;36.31;24.50
41254;BME280;26987;59.928;30.306;2023-06-22T06:57:08;100931.63;;;36.04;25.03
41254;BME280;26987;59.928;30.306;2023-06-22T06:59:37;100933.72;;;36.14;25.00
41254;BME280;26987;59.928;30.306;2023-06-22T07:02:04;100942.81;;;36.38;25.05
41254;BME280;26987;59.928;30.306;2023-06-22T07:04:34;100936.16;;;36.50;24.79
41254;BME280;26987;59.928;30.306;2023-06-22T07:07:02;100911.72;;;36.05;24.71
41254;BME280;26987;59.928;30.306;2023-06-22T07:09:30;100932.28;;;35.93;24.96
41254;BME280;26987;59.928;30.306;2023-06-22T07:11:58;100923.75;;;35.55;25.77
41254;BME280;26987;59.928;30.306;2023-06-22T07:14:26;100933.41;;;35.34;25.87
41254;BME280;26987;59.928;30.306;2023-06-22T07:16:53;100918.97;;;34.19;27.49
41254;BME280;26987;59.928;30.306;2023-06-22T07:19:24;100916.88;;;33.96;27.92
41254;BME280;26987;59.928;30.306;2023-06-22T07:21:55;100881.78;;;33.35;28.68
41254;BME280;26987;59.928;30.306;2023-06-22T07:24:22;100914.75;;;33.05;29.34
41254;BME280;26987;59.928;30.306;2023-06-22T07:26:51;100896.44;;;32.55;29.79
41254;BME280;26987;59.928;30.306;2023-06-22T07:29:19;100907.09;;;32.41;30.30
41254;BME280;26987;59.928;30.306;2023-06-22T07:31:48;100897.38;;;32.47;30.18
41254;BME280;26987;59.928;30.306;2023-06-22T07:34:17;100909.38;;;32.22;30.66
41254;BME280;26987;59.928;30.306;2023-06-22T07:36:45;100890.13;;;32.14;30.97
41254;BME280;26987;59.928;30.306;2023-06-22T07:39:15;100893.81;;;32.05;30.80
41254;BME280;26987;59.928;30.306;2023-06-22T07:41:42;100893.19;;;31.58;30.79
41254;BME280;26987;59.928;30.306;2023-06-22T07:44:10;100886.53;;;31.47;32.24
41254;BME280;26987;59.928;30.306;2023-06-22T07:46:38;100875.53;;;31.26;32.75
41254;BME280;26987;59.928;30.306;2023-06-22T07:49:06;100894.34;;;31.32;32.15
41254;BME280;26987;59.928;30.306;2023-06-22T07:51:34;100879.19;;;30.92;32.58
41254;BME280;26987;59.928;30.306;2023-06-22T07:54:02;100883.84;;;30.67;34.39
41254;BME280;26987;59.928;30.306;2023-06-22T07:56:31;100880.34;;;30.79;33.17
41254;BME280;26987;59.928;30.306;2023-06-22T07:58:59;100873.44;;;30.51;33.32
41254;BME280;26987;59.928;30.306;2023-06-22T08:01:30;100862.88;;;30.32;33.88
41254;BME280;26987;59.928;30.306;2023-06-22T08:03:57;100874.50;;;30.25;33.69
41254;BME280;26987;59.928;30.306;2023-06-22T08:06:25;100854.19;;;30.00;34.40
41254;BME280;26987;59.928;30.306;2023-06-22T08:08:53;100871.41;;;30.27;34.47
41254;BME280;26987;59.928;30.306;2023-06-22T08:11:23;100874.97;;;30.27;34.35
41254;BME280;26987;59.928;30.306;2023-06-22T08:13:53;100871.19;;;30.11;34.79
41254;BME280;26987;59.928;30.306;2023-06-22T08:16:22;100866.34;;;29.86;35.68
41254;BME280;26987;59.928;30.306;2023-06-22T08:18:49;100861.75;;;29.90;35.35
41254;BME280;26987;59.928;30.306;2023-06-22T08:21:17;100857.78;;;30.00;34.72
41254;BME280;26987;59.928;30.306;2023-06-22T08:23:45;100856.03;;;30.17;35.70
41254;BME280;26987;59.928;30.306;2023-06-22T08:26:13;100853.75;;;30.19;34.92
41254;BME280;26987;59.928;30.306;2023-06-22T08:28:41;100847.88;;;30.54;34.50
41254;BME280;26987;59.928;30.306;2023-06-22T08:31:11;100814.41;;;30.34;34.27
41254;BME280;26987;59.928;30.306;2023-06-22T08:33:40;100837.44;;;30.73;33.71
41254;BME280;26987;59.928;30.306;2023-06-22T08:36:09;100836.53;;;30.81;33.90
41254;BME280;26987;59.928;30.306;2023-06-22T08:38:39;100844.72;;;30.90;33.48
41254;BME280;26987;59.928;30.306;2023-06-22T08:41:07;100834.00;;;30.88;33.31
41254;BME280;26987;59.928;30.306;2023-06-22T08:43:35;100821.00;;;30.89;33.58
41254;BME280;26987;59.928;30.306;2023-06-22T08:46:02;100832.63;;;30.94;33.30
41254;BME280;26987;59.928;30.306;2023-06-22T08:48:32;100826.97;;;30.91;32.41
41254;BME280;26987;59.928;30.306;2023-06-22T08:50:59;100820.19;;;31.01;32.79
41254;BME280;26987;59.928;30.306;2023-06-22T08:53:27;100817.31;;;30.84;33.60
41254;BME280;26987;59.928;30.306;2023-06-22T08:55:55;100813.59;;;30.80;34.35
41254;BME280;26987;59.928;30.306;2023-06-22T08:58:23;100818.63;;;30.66;34.45
41254;BME280;26987;59.928;30.306;2023-06-22T09:00:51;100817.94;;;30.69;34.19
41254;BME280;26987;59.928;30.306;2023-06-22T09:03:19;100821.34;;;30.53;34.42
41254;BME280;26987;59.928;30.306;2023-06-22T09:05:48;100808.19;;;30.38;34.41
41254;BME280;26987;59.928;30.306;2023-06-22T09:08:16;100816.25;;;30.30;34.63
41254;BME280;26987;59.928;30.306;2023-06-22T09:10:44;100806.88;;;30.23;34.56
41254;BME280;26987;59.928;30.306;2023-06-22T09:13:12;100791.56;;;30.25;34.24
41254;BME280;26987;59.928;30.306;2023-06-22T09:15:40;100813.25;;;30.36;33.59
41254;BME280;26987;59.928;30.306;2023-06-22T09:18:10;100803.25;;;30.43;34.62
41254;BME280;26987;59.928;30.306;2023-06-22T09:20:38;100810.53;;;30.61;33.85
41254;BME280;26987;59.928;30.306;2023-06-22T09:23:07;100799.31;;;30.78;33.77
41254;BME280;26987;59.928;30.306;2023-06-22T09:25:35;100793.53;;;30.83;33.79
41254;BME280;26987;59.928;30.306;2023-06-22T09:28:03;100807.84;;;30.86;33.92
41254;BME280;26987;59.928;30.306;2023-06-22T09:30:31;100801.38;;;30.81;33.42
41254;BME280;26987;59.928;30.306;2023-06-22T09:32:59;100796.03;;;30.64;34.55
41254;BME280;26987;59.928;30.306;2023-06-22T09:35:27;100794.88;;;30.65;34.98
41254;BME280;26987;59.928;30.306;2023-06-22T09:37:55;100781.06;;;30.65;34.43
41254;BME280;26987;59.928;30.306;2023-06-22T09:40:24;100792.47;;;30.76;35.24
41254;BME280;26987;59.928;30.306;2023-06-22T09:42:52;100790.53;;;30.76;34.54
41254;BME280;26987;59.928;30.306;2023-06-22T09:45:20;100776.03;;;30.79;34.85
41254;BME280;26987;59.928;30.306;2023-06-22T09:47:48;100786.84;;;31.09;34.12
41254;BME280;26987;59.928;30.306;2023-06-22T09:50:15;100784.53;;;31.24;33.13
41254;BME280;26987;59.928;30.306;2023-06-22T09:52:43;100774.38;;;31.28;33.34
41254;BME280;26987;59.928;30.306;2023-06-22T09:55:17;100768.94;;;31.32;34.38
41254;BME280;26987;59.928;30.306;2023-06-22T09:57:47;100739.31;;;31.32;33.15
41254;BME280;26987;59.928;30.306;2023-06-22T10:00:15;100769.47;;;31.63;32.82
41254;BME280;26987;59.928;30.306;2023-06-22T10:02:46;100750.59;;;31.52;32.49
41254;BME280;26987;59.928;30.306;2023-06-22T10:05:14;100726.44;;;31.12;32.47
41254;BME280;26987;59.928;30.306;2023-06-22T10:07:42;100753.41;;;31.15;32.74
41254;BME280;26987;59.928;30.306;2023-06-22T10:10:10;100757.69;;;31.00;32.83
41254;BME280;26987;59.928;30.306;2023-06-22T10:12:41;100737.72;;;30.94;33.23
41254;BME280;26987;59.928;30.306;2023-06-22T10:15:11;100745.59;;;30.92;32.76
41254;BME280;26987;59.928;30.306;2023-06-22T10:17:39;100740.97;;;30.96;33.26
41254;BME280;26987;59.928;30.306;2023-06-22T10:20:08;100738.84;;;31.18;33.53
41254;BME280;26987;59.928;30.306;2023-06-22T10:22:39;100727.47;;;31.07;33.24
41254;BME280;26987;59.928;30.306;2023-06-22T10:25:08;100738.19;;;30.96;33.38
41254;BME280;26987;59.928;30.306;2023-06-22T10:27:36;100730.00;;;30.75;33.49
41254;BME280;26987;59.928;30.306;2023-06-22T10:30:07;100718.69;;;30.55;34.06
41254;BME280;26987;59.928;30.306;2023-06-22T10:32:38;100721.22;;;30.48;34.16
41254;BME280;26987;59.928;30.306;2023-06-22T10:35:07;100717.97;;;30.20;34.41
41254;BME280;26987;59.928;30.306;2023-06-22T10:37:36;100702.34;;;30.03;34.48
41254;BME280;26987;59.928;30.306;2023-06-22T10:40:05;100712.78;;;29.85;35.23
41254;BME280;26987;59.928;30.306;2023-06-22T10:42:34;100709.81;;;29.69;35.65
41254;BME280;26987;59.928;30.306;2023-06-22T10:45:02;100718.47;;;29.46;35.83
41254;BME280;26987;59.928;30.306;2023-06-22T10:47:30;100725.38;;;28.70;44.69
41254;BME280;26987;59.928;30.306;2023-06-22T10:49:59;100746.31;;;27.62;50.81
41254;BME280;26987;59.928;30.306;2023-06-22T10:52:27;100743.34;;;26.73;58.89
41254;BME280;26987;59.928;30.306;2023-06-22T10:54:55;100741.91;;;26.21;55.49
41254;BME280;26987;59.928;30.306;2023-06-22T10:57:23;100709.22;;;25.51;59.01
41254;BME280;26987;59.928;30.306;2023-06-22T10:59:50;100713.06;;;24.99;61.24
41254;BME280;26987;59.928;30.306;2023-06-22T11:02:18;100685.03;;;24.60;58.34
41254;BME280;26987;59.928;30.306;2023-06-22T11:04:46;100709.59;;;24.65;62.11
41254;BME280;26987;59.928;30.306;2023-06-22T11:07:16;100687.34;;;24.52;62.85
41254;BME280;26987;59.928;30.306;2023-06-22T11:09:44;100690.09;;;24.52;61.47
41254;BME280;26987;59.928;30.306;2023-06-22T11:12:12;100679.44;;;24.37;63.14
41254;BME280;26987;59.928;30.306;2023-06-22T11:14:40;100685.53;;;24.34;64.19
41254;BME280;26987;59.928;30.306;2023-06-22T11:17:08;100682.69;;;24.39;61.24
41254;BME280;26987;59.928;30.306;2023-06-22T11:19:35;100661.59;;;24.39;56.19
41254;BME280;26987;59.928;30.306;2023-06-22T11:22:04;100686.38;;;24.62;58.20
41254;BME280;26987;59.928;30.306;2023-06-22T11:24:33;100689.50;;;24.84;59.33
41254;BME280;26987;59.928;30.306;2023-06-22T11:27:01;100687.38;;;24.94;57.47
41254;BME280;26987;59.928;30.306;2023-06-22T11:29:29;100690.34;;;24.98;55.84
41254;BME280;26987;59.928;30.306;2023-06-22T11:31:57;100687.09;;;24.96;54.02
41254;BME280;26987;59.928;30.306;2023-06-22T11:34:25;100686.69;;;24.89;53.48
41254;BME280;26987;59.928;30.306;2023-06-22T11:36:52;100683.63;;;24.90;52.50
41254;BME280;26987;59.928;30.306;2023-06-22T11:39:20;100689.66;;;24.92;52.62
41254;BME280;26987;59.928;30.306;2023-06-22T11:41:50;100680.16;;;24.85;52.58
41254;BME280;26987;59.928;30.306;2023-06-22T11:44:17;100674.09;;;24.88;54.35
41254;BME280;26987;59.928;30.306;2023-06-22T11:46:45;100653.47;;;24.90;56.03
41254;BME280;26987;59.928;30.306;2023-06-22T11:49:14;100680.16;;;25.13;56.16
41254;BME280;26987;59.928;30.306;2023-06-22T11:51:42;100666.81;;;25.20;56.40
41254;BME280;26987;59.928;30.306;2023-06-22T11:54:10;100656.03;;;25.38;55.98
41254;BME280;26987;59.928;30.306;2023-06-22T11:56:38;100664.78;;;25.63;54.96
41254;BME280;26987;59.928;30.306;2023-06-22T11:59:07;100659.72;;;25.79;53.95
41254;BME280;26987;59.928;30.306;2023-06-22T12:01:35;100656.16;;;26.01;53.08
41254;BME280;26987;59.928;30.306;2023-06-22T12:04:03;100659.31;;;26.17;52.72
41254;BME280;26987;59.928;30.306;2023-06-22T12:06:32;100660.88;;;26.32;52.30
41254;BME280;26987;59.928;30.306;2023-06-22T12:09:01;100652.34;;;26.43;52.27
41254;BME280;26987;59.928;30.306;2023-06-22T12:11:30;100652.53;;;26.55;51.52
41254;BME280;26987;59.928;30.306;2023-06-22T12:13:58;100650.94;;;26.63;50.59
41254;BME280;26987;59.928;30.306;2023-06-22T12:16:29;100647.75;;;26.70;50.04
41254;BME280;26987;59.928;30.306;2023-06-22T12:18:57;100653.75;;;26.81;47.68
41254;BME280;26987;59.928;30.306;2023-06-22T12:21:25;100653.06;;;26.66;48.05
41254;BME280;26987;59.928;30.306;2023-06-22T12:23:53;100620.31;;;26.29;47.88
41254;BME280;26987;59.928;30.306;2023-06-22T12:26:21;100645.72;;;26.44;48.63
41254;BME280;26987;59.928;30.306;2023-06-22T12:28:49;100646.72;;;26.57;48.54
41254;BME280;26987;59.928;30.306;2023-06-22T12:31:17;100626.13;;;26.37;48.03
41254;BME280;26987;59.928;30.306;2023-06-22T12:33:46;100650.47;;;26.61;48.08
41254;BME280;26987;59.928;30.306;2023-06-22T12:36:14;100653.28;;;26.79;47.30
41254;BME280;26987;59.928;30.306;2023-06-22T12:38:42;100651.47;;;26.74;47.20
41254;BME280;26987;59.928;30.306;2023-06-22T12:41:10;100642.41;;;26.74;46.75
41254;BME280;26987;59.928;30.306;2023-06-22T12:43:38;100655.38;;;26.82;46.86
41254;BME280;26987;59.928;30.306;2023-06-22T12:46:06;100653.91;;;26.85;46.76
41254;BME280;26987;59.928;30.306;2023-06-22T12:48:34;100640.97;;;26.76;46.57